Time,TemperatureF,DewpointF,PressureIn,WindDirection,WindDirectionDegrees,WindSpeedMPH,WindSpeedGustMPH,Humidity,HourlyPrecipIn,Conditions,Clouds,dailyrainin,SoftwareType,DateUTC
2013-07-22 00:01:00,68.0,47.0,-100.00,South,180,4.0,4.0,47,-99.99,,,-99.99,,2013-07-22 07:01:00,
2013-07-22 00:11:00,68.0,47.0,-100.00,South,180,4.0,4.0,47,-99.99,,,-99.99,,2013-07-22 07:11:00,
2013-07-22 00:22:00,66.0,46.0,-100.00,SW,225,6.0,7.0,48,-99.99,,,-99.99,,2013-07-22 07:22:00,
2013-07-22 00:43:00,65.0,45.0,-100.00,South,180,6.0,7.0,49,-99.99,,,-99.99,,2013-07-22 07:43:00,
2013-07-22 00:53:00,65.0,45.0,-100.00,South,180,6.0,7.0,49,-99.99,,,-99.99,,2013-07-22 07:53:00,
2013-07-22 01:01:00,63.0,44.0,-100.00,South,180,7.0,9.0,49,-99.99,,,-99.99,,2013-07-22 08:01:00,
2013-07-22 01:11:00,63.0,44.0,-100.00,South,180,7.0,9.0,49,-99.99,,,-99.99,,2013-07-22 08:11:00,
2013-07-22 01:22:00,63.0,44.0,-100.00,South,180,4.0,8.0,49,-99.99,,,-99.99,,2013-07-22 08:22:00,
2013-07-22 01:32:00,62.0,43.0,-100.00,SW,225,4.0,7.0,49,-99.99,,,-99.99,,2013-07-22 08:32:00,
2013-07-22 01:43:00,61.0,42.0,-100.00,South,180,8.0,9.0,50,-99.99,,,-99.99,,2013-07-22 08:43:00,
2013-07-22 01:52:00,61.0,42.0,-100.00,South,180,8.0,9.0,50,-99.99,,,-99.99,,2013-07-22 08:52:00,
2013-07-22 02:02:00,61.0,43.0,-100.00,South,180,4.0,7.0,51,-99.99,,,-99.99,,2013-07-22 09:02:00,
2013-07-22 02:22:00,59.0,42.0,-100.00,South,180,6.0,9.0,52,-99.99,,,-99.99,,2013-07-22 09:22:00,
2013-07-22 02:33:00,59.0,42.0,-100.00,South,180,7.0,10.0,53,-99.99,,,-99.99,,2013-07-22 09:33:00,
2013-07-22 02:52:00,58.0,42.0,-100.00,South,180,7.0,11.0,54,-99.99,,,-99.99,,2013-07-22 09:52:00,
2013-07-22 03:01:00,59.0,42.0,-100.00,South,180,6.0,9.0,54,-99.99,,,-99.99,,2013-07-22 10:01:00,
2013-07-22 03:11:00,60.0,43.0,-100.00,SW,225,8.0,11.0,53,-99.99,,,-99.99,,2013-07-22 10:11:00,
2013-07-22 03:22:00,60.0,43.0,-100.00,SW,225,8.0,11.0,53,-99.99,,,-99.99,,2013-07-22 10:22:00,
2013-07-22 03:32:00,59.0,42.0,-100.00,South,180,6.0,10.0,53,-99.99,,,-99.99,,2013-07-22 10:32:00,
2013-07-22 03:43:00,59.0,42.0,-100.00,SW,225,9.0,13.0,53,-99.99,,,-99.99,,2013-07-22 10:43:00,
2013-07-22 03:53:00,59.0,42.0,-100.00,SW,225,9.0,13.0,53,-99.99,,,-99.99,,2013-07-22 10:53:00,
2013-07-22 04:01:00,59.0,42.0,-100.00,SW,225,9.0,14.0,53,-99.99,,,-99.99,,2013-07-22 11:01:00,
2013-07-22 04:11:00,59.0,42.0,-100.00,SW,225,9.0,14.0,53,-99.99,,,-99.99,,2013-07-22 11:11:00,
2013-07-22 04:22:00,60.0,43.0,-100.00,SW,225,10.0,16.0,53,-99.99,,,-99.99,,2013-07-22 11:22:00,
2013-07-22 04:32:00,60.0,43.0,-100.00,SW,225,11.0,15.0,54,-99.99,,,-99.99,,2013-07-22 11:32:00,
2013-07-22 04:52:00,59.0,43.0,-100.00,South,180,10.0,18.0,55,-99.99,,,-99.99,,2013-07-22 11:52:00,
2013-07-22 05:02:00,59.0,43.0,-100.00,SW,225,12.0,16.0,56,-99.99,,,-99.99,,2013-07-22 12:02:00,
2013-07-22 05:11:00,59.0,43.0,-100.00,SW,225,12.0,18.0,57,-99.99,,,-99.99,,2013-07-22 12:11:00,
2013-07-22 05:22:00,59.0,43.0,-100.00,SW,225,12.0,18.0,57,-99.99,,,-99.99,,2013-07-22 12:22:00,
2013-07-22 05:32:00,58.0,43.0,-100.00,SW,225,13.0,17.0,58,-99.99,,,-99.99,,2013-07-22 12:32:00,
2013-07-22 05:43:00,58.0,44.0,-100.00,SW,225,11.0,17.0,60,-99.99,,,-99.99,,2013-07-22 12:43:00,
2013-07-22 05:53:00,58.0,44.0,-100.00,SW,225,11.0,17.0,60,-99.99,,,-99.99,,2013-07-22 12:53:00,
2013-07-22 06:11:00,58.0,44.0,-100.00,SW,225,12.0,17.0,60,-99.99,,,-99.99,,2013-07-22 13:11:00,
2013-07-22 06:21:00,57.0,44.0,-100.00,SW,225,10.0,14.0,61,-99.99,,,-99.99,,2013-07-22 13:21:00,
2013-07-22 06:53:00,57.0,43.0,-100.00,SW,225,10.0,17.0,60,-99.99,,,-99.99,,2013-07-22 13:53:00,
2013-07-22 07:01:00,57.0,43.0,-100.00,SW,225,10.0,17.0,60,-99.99,,,-99.99,,2013-07-22 14:01:00,
2013-07-22 07:22:00,58.0,44.0,-100.00,SW,225,10.0,16.0,60,-99.99,,,-99.99,,2013-07-22 14:22:00,
2013-07-22 07:53:00,59.0,44.0,-100.00,SW,225,12.0,17.0,58,-99.99,,,-99.99,,2013-07-22 14:53:00,
2013-07-22 08:01:00,59.0,44.0,-100.00,SW,225,9.0,14.0,58,-99.99,,,-99.99,,2013-07-22 15:01:00,
2013-07-22 08:11:00,59.0,44.0,-100.00,SW,225,9.0,14.0,58,-99.99,,,-99.99,,2013-07-22 15:11:00,
2013-07-22 08:22:00,59.0,44.0,-100.00,SW,225,9.0,16.0,57,-99.99,,,-99.99,,2013-07-22 15:22:00,
2013-07-22 08:52:00,61.0,45.0,-100.00,SW,225,11.0,14.0,55,-99.99,,,-99.99,,2013-07-22 15:52:00,
2013-07-22 09:11:00,63.0,46.0,-100.00,SW,225,10.0,16.0,53,-99.99,,,-99.99,,2013-07-22 16:11:00,
2013-07-22 09:21:00,64.0,46.0,-100.00,SW,225,11.0,14.0,52,-99.99,,,-99.99,,2013-07-22 16:21:00,
2013-07-22 09:32:00,66.0,48.0,-100.00,SW,225,8.0,14.0,51,-99.99,,,-99.99,,2013-07-22 16:32:00,
2013-07-22 09:52:00,69.0,49.0,-100.00,South,180,6.0,9.0,48,-99.99,,,-99.99,,2013-07-22 16:52:00,
2013-07-22 10:01:00,71.0,49.0,-100.00,SW,225,8.0,10.0,46,-99.99,,,-99.99,,2013-07-22 17:01:00,
2013-07-22 10:11:00,71.0,49.0,-100.00,SW,225,8.0,10.0,46,-99.99,,,-99.99,,2013-07-22 17:11:00,
2013-07-22 22:22:00,78.0,43.0,-100.00,North,0,3.0,5.0,29,-99.99,,,-99.99,,2013-07-23 05:22:00,
2013-07-22 22:33:00,78.0,43.0,-100.00,North,0,3.0,5.0,29,-99.99,,,-99.99,,2013-07-23 05:33:00,
2013-07-22 22:43:00,75.0,42.0,-100.00,East,90,1.0,2.0,31,-99.99,,,-99.99,,2013-07-23 05:43:00,
2013-07-22 22:52:00,75.0,42.0,-100.00,East,90,1.0,2.0,31,-99.99,,,-99.99,,2013-07-23 05:52:00,
2013-07-22 23:01:00,74.0,42.0,-100.00,South,180,1.0,1.0,31,-99.99,,,-99.99,,2013-07-23 06:01:00,
2013-07-22 23:22:00,73.0,43.0,-100.00,South,180,2.0,3.0,33,-99.99,,,-99.99,,2013-07-23 06:22:00,
2013-07-22 23:33:00,73.0,43.0,-100.00,West,270,2.0,3.0,34,-99.99,,,-99.99,,2013-07-23 06:33:00,
2013-07-22 23:52:00,71.0,43.0,-100.00,SW,225,2.0,3.0,37,-99.99,,,-99.99,,2013-07-23 06:52:00,